Terminal Aerodrome Forecast
Issued by NWS Brownsville, TX

Home | Current Version | Previous Version | Text Only | Print | Product List | Glossary On
Versions: 1 2 3 4 5 6 7 8 9 10 11 12 13 14 15 16 17 18 19 20 21 22 23 24 25 26
000
FTUS44 KBRO 191720
TAFHRL
TAF
KHRL 191720Z 1918/2018 17025G32KT P6SM SCT023 BKN029
     FM200400 16015G20KT P6SM BKN015
     FM200600 16016G22KT P6SM OVC008
     FM200800 16017G23KT P6SM OVC015=

USA.gov is the U.S. government's official web portal to all federal, state and local government web resources and services.